Aérodrome :
LOGIN :

S'inscrire | Disclaimer

   EN    FR    IT 

 










Légende :    VFR   VFR Marginal   IFR   IFR Intensif   IFR Très Intensif
Visi : 
Plafond : 
>= 8 km
>= 3000ft
5 à 8 km
1000 à 3000 ft
1500m à 5 km
500 à 1000 ft
800 à 1500m
200 à 500 ft
< 800m
< 200 ft
Symboles :   Orages  Brouillard  Fortes neiges  Fortes précipitations  Vent > 20 kt
SIGMETs :   Divers  Orages  Givrage  Turbulence  Onde Orograph.  Cendres Volcan.







- Altitude de l'aérodrome : 863 ft
- Code IATA : ZAZ


LEZG - Zaragoza Aragon

DERNIER METAR :
  • 231800Z 29014KT CAVOK 18/M01 Q1025

METARs EXPIRÉS :
  • 231730Z 30015KT CAVOK 19/M01 Q1024
  • 231700Z 30018KT CAVOK 20/M01 Q1024
  • 231630Z 31019KT CAVOK 21/M01 Q1024
  • 231600Z 31019KT 280V340 CAVOK 23/M01 Q1024
  • 231530Z 31019KT CAVOK 23/M02 Q1024

TAF TAF LEZG
Valide du 23 à 18h jusqu'au 24 à 18h UTC


231700Z 2318/2418 29012KT 9999 FEW050 TX18/2415Z TN06/2406Z
BECMG 2400/2402 VRB04KT
PROB40
TEMPO 2403/2409 4000 BR BKN009
Pas de NOTAMs connus pour ce terrain.



MET'MAP, la Météo Aéronautique d'un coup d'oeil ! - Copyright ORBIFLY Décembre 2007 - Disclaimer

ORBIFLY MET'MAP TEAM :

Programmation & Développement : Alexandra Zaïnal
Conception & Développement : Baudouin d'Aumeries
Co-Programmation & Développement : Marc-Olivier Méhu
Soutien technique & logistique : Manuel Goepfert

Contact : metmap@orbifly.com




SOURCES & CREDITS :

   NOAA